Time;durP1;ratioP1;P1;durP2;ratioP2;P2;SDS_P1;SDS_P2;PMS_P1;PMS_P2;Temp;Humidity;BMP_temperature;BMP_pressure;BME280_temperature;BME280_humidity;BME280_pressure;Samples;Min_cycle;Max_cycle;Signal;HPM_P1;HPM_P2
2023/02/20 00:02:20;;;;;;;8.90;3.80;;;;;;;0.14;85.20;99072.91;437602;1249;108614;-40
2023/02/20 00:12:27;;;;;;;11.20;5.40;;;;;;;0.09;85.11;99065.05;437589;1249;99239;-39
2023/02/20 00:22:34;;;;;;;13.80;4.00;;;;;;;-0.01;85.16;99065.05;437608;1250;111954;-40
2023/02/20 00:32:41;;;;;;;15.20;4.20;;;;;;;-0.07;85.30;99062.01;437495;1247;109469;-40
2023/02/20 00:42:49;;;;;;;8.50;4.40;;;;;;;-0.13;85.09;99067.79;437570;1247;99240;-40
2023/02/20 00:52:56;;;;;;;8.50;3.30;;;;;;;-0.12;84.99;99074.77;437657;1248;107667;-39
2023/02/20 01:03:03;;;;;;;10.20;3.80;;;;;;;-0.04;85.20;99069.95;437714;1247;98426;-39
2023/02/20 01:13:12;;;;;;;13.90;4.80;;;;;;;-0.06;85.28;99062.92;437570;1249;112088;-41
2023/02/20 01:23:19;;;;;;;6.60;4.50;;;;;;;-0.03;85.47;99068.31;437561;1247;108588;-39
2023/02/20 01:43:33;;;;;;;7.80;2.50;;;;;;;0.02;85.21;99046.41;437467;1247;113044;-39
2023/02/20 01:53:40;;;;;;;6.40;3.00;;;;;;;0.17;85.34;99036.71;437475;1247;108027;-39
2023/02/20 02:03:53;;;;;;;9.80;3.70;;;;;;;0.29;85.26;99021.45;437552;1249;99210;-40
2023/02/20 02:13:59;;;;;;;13.20;4.40;;;;;;;0.30;85.51;99006.97;437529;1249;107723;-41
2023/02/20 02:24:39;;;;;;;11.30;4.50;;;;;;;0.24;85.23;99003.67;438068;1247;98805;-40
2023/02/20 02:35:16;;;;;;;6.60;3.60;;;;;;;0.10;84.79;98995.31;437207;1248;99199;-40
2023/02/20 02:45:21;;;;;;;5.80;3.10;;;;;;;0.05;84.81;98991.27;437190;1251;106682;-41
2023/02/20 02:55:32;;;;;;;11.10;5.50;;;;;;;0.08;85.02;99004.66;437187;1251;99214;-40
2023/02/20 03:15:43;;;;;;;11.20;4.70;;;;;;;-0.08;85.20;98966.21;437267;1251;106149;-40
2023/02/20 03:25:52;;;;;;;14.60;5.60;;;;;;;-0.21;85.25;98963.57;436769;1246;437478;-38
2023/02/20 03:46:29;;;;;;;10.10;3.70;;;;;;;-0.18;85.22;98977.17;437131;1246;107788;-39
2023/02/20 03:56:34;;;;;;;9.20;3.50;;;;;;;-0.13;85.22;98962.77;437265;1246;99088;-40
2023/02/20 04:06:43;;;;;;;14.50;5.50;;;;;;;-0.17;85.37;98956.95;437192;1252;107725;-42
2023/02/20 04:16:56;;;;;;;15.20;5.90;;;;;;;-0.24;85.55;98949.48;437324;1250;99230;-40
2023/02/20 04:27:04;;;;;;;13.40;4.20;;;;;;;-0.37;85.47;98941.02;437332;1252;112009;-39
2023/02/20 04:37:14;;;;;;;15.80;4.70;;;;;;;-0.48;85.50;98927.44;437088;1246;109386;-40
2023/02/20 04:47:21;;;;;;;9.60;3.30;;;;;;;-0.42;85.73;98909.89;437281;1247;98812;-40
2023/02/20 04:57:29;;;;;;;8.60;4.00;;;;;;;-0.26;85.83;98875.77;437164;1252;112047;-40
2023/02/20 05:07:35;;;;;;;10.90;4.70;;;;;;;-0.13;85.89;98870.92;437409;1250;107497;-42
2023/02/20 05:17:42;;;;;;;11.60;4.90;;;;;;;-0.16;85.91;98873.65;437304;1251;97970;-39
2023/02/20 05:27:50;;;;;;;15.70;4.90;;;;;;;-0.18;85.84;98871.92;437471;1250;110309;-40
2023/02/20 05:37:57;;;;;;;5.20;2.40;;;;;;;-0.12;86.00;98858.88;437195;1248;108482;-40
2023/02/20 05:48:04;;;;;;;9.10;3.10;;;;;;;0.01;85.87;98862.94;437316;1247;99242;-41
2023/02/20 05:58:12;;;;;;;9.30;3.80;;;;;;;0.20;85.91;98863.90;437238;1250;111924;-41
2023/02/20 06:08:19;;;;;;;21.60;6.20;;;;;;;0.37;85.93;98869.45;437229;1247;108500;-41
2023/02/20 06:18:26;;;;;;;8.00;3.50;;;;;;;0.50;86.12;98866.36;437423;1252;119376;-40
2023/02/20 06:28:34;;;;;;;6.20;2.90;;;;;;;0.58;85.82;98849.23;437301;1247;107464;-40
2023/02/20 06:38:41;;;;;;;6.30;3.20;;;;;;;0.71;85.49;98855.80;437281;1246;98822;-40
2023/02/20 06:48:50;;;;;;;11.60;4.90;;;;;;;0.94;85.53;98858.94;437485;1250;112819;-40
2023/02/20 06:58:59;;;;;;;12.90;5.00;;;;;;;1.15;85.41;98840.14;437337;1247;111591;-40
2023/02/20 07:09:06;;;;;;;16.60;5.80;;;;;;;1.33;85.10;98825.08;437260;1251;98834;-39
2023/02/20 07:19:14;;;;;;;6.70;3.70;;;;;;;1.51;84.70;98817.19;437347;1252;110732;-40
2023/02/20 07:29:27;;;;;;;8.90;3.90;;;;;;;1.68;84.58;98808.83;437082;1251;107491;-40
2023/02/20 07:39:38;;;;;;;9.00;4.30;;;;;;;1.98;84.49;98794.35;437213;1257;99210;-40
2023/02/20 07:49:45;;;;;;;15.90;4.80;;;;;;;3.13;84.85;98768.70;437191;1246;112038;-40
2023/02/20 07:59:52;;;;;;;9.30;4.00;;;;;;;3.73;83.65;98758.63;437201;1252;108386;-41
2023/02/20 08:09:58;;;;;;;11.30;3.90;;;;;;;3.57;82.78;98761.67;437170;1252;98964;-39
2023/02/20 08:30:11;;;;;;;6.90;4.30;;;;;;;3.80;82.83;98715.42;437222;1253;99218;-40
2023/02/20 08:40:16;;;;;;;8.80;4.70;;;;;;;4.03;81.68;98695.22;437262;1252;99279;-40
2023/02/20 08:50:22;;;;;;;9.20;5.90;;;;;;;4.10;81.91;98682.73;437204;1251;111568;-40
2023/02/20 09:00:29;;;;;;;16.00;6.60;;;;;;;4.00;81.97;98666.08;437223;1252;106325;-41
2023/02/20 09:10:40;;;;;;;12.90;5.60;;;;;;;3.92;81.82;98670.27;437154;1251;99244;-40
2023/02/20 09:30:56;;;;;;;8.10;4.70;;;;;;;3.74;81.91;98638.13;437059;1254;107856;-39
2023/02/20 09:41:03;;;;;;;10.70;6.20;;;;;;;3.81;81.99;98618.38;437182;1251;98509;-41
2023/02/20 09:51:14;;;;;;;13.80;7.20;;;;;;;3.84;82.09;98593.27;437225;1248;110749;-43
2023/02/20 10:01:22;;;;;;;7.00;4.60;;;;;;;4.06;82.07;98576.58;437047;1252;108744;-40
2023/02/20 10:11:44;;;;;;;12.60;5.70;;;;;;;4.54;82.15;98553.72;437036;1248;99333;-39
2023/02/20 10:21:52;;;;;;;17.00;10.50;;;;;;;4.85;82.21;98537.31;437070;1251;111366;-42
2023/02/20 10:32:01;;;;;;;19.40;8.80;;;;;;;5.05;81.92;98519.62;437013;1250;108833;-40
2023/02/20 10:42:14;;;;;;;7.50;5.60;;;;;;;5.16;81.45;98501.29;436869;1253;99246;-40
2023/02/20 10:52:23;;;;;;;16.10;8.00;;;;;;;5.28;81.56;98457.54;437038;1250;108525;-39
2023/02/20 11:02:46;;;;;;;13.70;8.50;;;;;;;5.21;81.03;98433.45;436909;1250;98312;-41
2023/02/20 11:23:05;;;;;;;18.50;10.70;;;;;;;5.31;80.94;98370.98;437018;1251;106783;-40
2023/02/20 11:33:14;;;;;;;15.20;10.00;;;;;;;5.44;81.17;98324.63;436978;1248;99135;-39
2023/02/20 11:43:25;;;;;;;14.90;8.70;;;;;;;5.75;81.33;98297.39;436865;1248;109475;-40
2023/02/20 11:53:35;;;;;;;13.00;8.10;;;;;;;6.06;80.99;98287.34;436958;1247;99250;-40
2023/02/20 12:03:57;;;;;;;13.60;8.30;;;;;;;6.21;80.84;98275.77;436905;1250;110918;-40
2023/02/20 12:14:11;;;;;;;14.50;10.20;;;;;;;6.17;80.74;98240.66;436927;1260;108825;-41
2023/02/20 12:24:54;;;;;;;15.10;8.60;;;;;;;6.23;80.61;98190.93;436895;1250;98368;-40
2023/02/20 12:55:33;;;;;;;9.50;6.50;;;;;;;6.81;79.39;98164.05;436743;1248;98073;-40
2023/02/20 13:05:42;;;;;;;11.40;5.80;;;;;;;7.11;79.59;98135.80;436777;1251;108094;-40
2023/02/20 13:15:48;;;;;;;;;;;;;;;7.27;79.38;98107.73;437489;1248;97932;-40
2023/02/20 13:25:56;;;;;;;12.00;7.80;;;;;;;7.44;78.51;98046.02;436640;1251;110917;-40
2023/02/20 13:36:05;;;;;;;13.90;7.40;;;;;;;7.62;78.38;98007.88;436759;1251;107856;-41
2023/02/20 13:46:16;;;;;;;15.50;8.00;;;;;;;7.66;78.24;97962.34;436634;1248;99103;-41
2023/02/20 13:56:26;;;;;;;10.00;6.10;;;;;;;7.74;77.98;97943.35;436657;1251;108546;-40
2023/02/20 14:06:31;;;;;;;19.10;8.70;;;;;;;7.96;77.05;97957.23;436716;1248;99323;-39
2023/02/20 14:16:43;;;;;;;14.20;7.20;;;;;;;8.09;77.38;97935.15;436653;1250;112285;-40
2023/02/20 14:47:09;;;;;;;9.00;6.20;;;;;;;8.11;75.44;97870.21;436761;1251;107653;-40
2023/02/20 14:57:15;;;;;;;9.20;5.60;;;;;;;8.17;74.96;97884.14;436738;1248;99240;-40
2023/02/20 15:07:23;;;;;;;8.10;4.70;;;;;;;8.14;74.80;97891.61;436694;1250;111887;-40
2023/02/20 15:17:32;;;;;;;8.80;4.80;;;;;;;8.23;74.58;97896.52;436537;1251;109849;-40
2023/02/20 15:27:38;;;;;;;8.20;6.50;;;;;;;8.25;74.49;97924.06;436492;1247;442252;-40
2023/02/20 15:37:46;;;;;;;10.90;6.20;;;;;;;8.18;74.23;97930.98;436783;1248;109321;-40
2023/02/20 15:47:57;;;;;;;9.60;6.40;;;;;;;8.15;74.07;97924.65;436545;1247;97995;-40
2023/02/20 15:58:07;;;;;;;10.70;7.40;;;;;;;8.26;73.88;97924.92;436579;1251;111431;-40
2023/02/20 16:08:24;;;;;;;32.20;12.90;;;;;;;8.27;74.24;97938.56;436291;1247;108259;-40
2023/02/20 16:18:31;;;;;;;62.90;23.50;;;;;;;8.26;73.74;97945.45;436688;1247;99227;-40
2023/02/20 16:28:39;;;;;;;15.40;8.90;;;;;;;8.24;74.05;97952.11;436471;1252;108925;-40
2023/02/20 16:38:46;;;;;;;6.70;4.70;;;;;;;8.42;73.33;97950.42;436516;1247;99283;-41
2023/02/20 16:48:53;;;;;;;10.10;6.20;;;;;;;8.48;73.55;97943.21;436552;1249;112546;-40
2023/02/20 16:59:02;;;;;;;12.90;6.10;;;;;;;8.45;73.77;97940.79;436419;1250;108846;-40
2023/02/20 17:09:10;;;;;;;8.50;5.60;;;;;;;8.49;73.93;97937.02;436573;1247;98063;-40
2023/02/20 17:19:16;;;;;;;8.70;5.70;;;;;;;8.48;74.71;97949.34;436574;1247;106827;-40
2023/02/20 17:29:25;;;;;;;8.00;5.00;;;;;;;8.46;74.99;97960.40;436542;1247;98944;-39
2023/02/20 17:39:31;;;;;;;;;;;;;;;8.48;74.97;97959.59;436665;1250;111421;-40
2023/02/20 17:49:38;;;;;;;7.00;4.30;;;;;;;8.47;75.23;97965.90;436560;1246;107942;-40
2023/02/20 18:09:56;;;;;;;11.00;5.30;;;;;;;8.52;75.71;97965.64;436624;1251;108524;-41
2023/02/20 18:20:03;;;;;;;29.60;13.30;;;;;;;8.51;75.69;97957.55;436612;1247;98857;-42
2023/02/20 18:30:13;;;;;;;60.30;26.20;;;;;;;8.44;76.07;97957.04;436494;1251;111421;-41
2023/02/20 18:40:19;;;;;;;11.40;6.60;;;;;;;8.47;76.18;97937.35;436643;1251;107729;-40
2023/02/20 18:50:27;;;;;;;14.60;6.80;;;;;;;8.48;76.35;97921.77;436567;1247;99194;-41
2023/02/20 19:00:34;;;;;;;12.30;7.20;;;;;;;8.46;76.49;97904.29;436717;1251;110360;-41
2023/02/20 19:10:41;;;;;;;9.80;4.10;;;;;;;8.53;76.52;97896.79;436722;1251;99188;-40
2023/02/20 19:20:51;;;;;;;13.40;5.40;;;;;;;8.65;76.20;97879.79;437483;1250;112129;-41
2023/02/20 19:30:59;;;;;;;9.50;4.20;;;;;;;8.75;75.42;97859.48;436711;1251;108385;-40
2023/02/20 19:41:06;;;;;;;6.60;3.00;;;;;;;8.81;74.73;97843.77;436621;1247;99232;-41
2023/02/20 19:51:15;;;;;;;3.70;2.70;;;;;;;8.86;73.82;97840.95;436643;1248;107965;-42
2023/02/20 20:01:22;;;;;;;4.80;3.40;;;;;;;8.83;73.69;97857.56;436703;1246;99253;-41
2023/02/20 20:11:29;;;;;;;5.20;2.90;;;;;;;8.84;73.57;97860.05;436716;1250;111236;-39
2023/02/20 20:21:37;;;;;;;7.40;3.50;;;;;;;8.87;73.55;97862.95;437479;1251;108014;-41
2023/02/20 20:31:45;;;;;;;5.60;3.40;;;;;;;8.85;73.63;97861.85;436843;1247;99317;-41
2023/02/20 20:41:52;;;;;;;7.90;3.60;;;;;;;8.83;73.87;97859.35;436692;1246;107479;-40
2023/02/20 20:51:59;;;;;;;4.70;2.80;;;;;;;8.80;74.31;97861.23;437403;1247;98747;-41
2023/02/20 21:02:07;;;;;;;9.80;3.90;;;;;;;8.71;74.60;97858.05;437831;1247;112248;-41
2023/02/20 21:12:14;;;;;;;7.30;3.60;;;;;;;8.68;74.81;97857.11;436715;1247;107480;-41
2023/02/20 21:32:28;;;;;;;8.00;4.90;;;;;;;8.62;75.37;97843.32;436811;1251;109183;-40
2023/02/20 21:53:00;;;;;;;15.80;7.90;;;;;;;8.57;75.68;97848.50;436862;1247;110461;-40
